Time;durP1;ratioP1;P1;durP2;ratioP2;P2;SDS_P1;SDS_P2;PMS_P1;PMS_P2;Temp;Humidity;BMP_temperature;BMP_pressure;BME280_temperature;BME280_humidity;BME280_pressure;Samples;Min_cycle;Max_cycle;Signal;HPM_P1;HPM_P2
2024/03/20 00:01:14;;;;;;;0.30;0.20;;;;;;;8.13;100.00;100602.28;5031444;28;20498;-47
2024/03/20 00:03:40;;;;;;;0.30;0.20;;;;;;;8.19;100.00;100607.47;5031854;28;20270;-47
2024/03/20 00:06:05;;;;;;;0.30;0.20;;;;;;;8.23;100.00;100603.03;5031434;28;20648;-48
2024/03/20 00:08:31;;;;;;;0.47;0.47;;;;;;;8.29;100.00;100597.63;5031404;28;20306;-48
2024/03/20 00:10:57;;;;;;;0.30;0.20;;;;;;;8.37;100.00;100598.44;5031777;28;20220;-49
2024/03/20 00:13:22;;;;;;;0.30;0.20;;;;;;;8.37;100.00;100597.56;5031813;28;20299;-46
2024/03/20 00:15:48;;;;;;;0.30;0.20;;;;;;;8.33;100.00;100596.69;5031476;28;20323;-47
2024/03/20 00:18:14;;;;;;;0.30;0.20;;;;;;;8.33;100.00;100597.56;5031734;28;20291;-47
2024/03/20 00:20:41;;;;;;;0.30;0.20;;;;;;;8.45;100.00;100603.59;5031477;28;20221;-47
2024/03/20 00:23:07;;;;;;;0.30;0.20;;;;;;;8.44;100.00;100596.56;5031618;28;20209;-47
2024/03/20 00:25:33;;;;;;;0.30;0.20;;;;;;;8.46;100.00;100600.94;5031165;28;20833;-47
2024/03/20 00:27:58;;;;;;;0.30;0.20;;;;;;;8.53;100.00;100602.59;5031296;28;20461;-47
2024/03/20 00:30:24;;;;;;;0.30;0.20;;;;;;;8.53;100.00;100610.56;5031397;28;20463;-47
2024/03/20 00:32:50;;;;;;;0.30;0.20;;;;;;;8.62;100.00;100604.22;5031148;28;20221;-48
2024/03/20 00:35:16;;;;;;;0.30;0.20;;;;;;;8.54;100.00;100611.44;5031060;28;20228;-47
2024/03/20 00:37:41;;;;;;;0.30;0.20;;;;;;;8.63;100.00;100597.16;5031011;28;20488;-48
2024/03/20 00:40:08;;;;;;;0.30;0.20;;;;;;;8.56;100.00;100597.25;5028199;28;20217;-47
2024/03/20 00:42:34;;;;;;;0.30;0.20;;;;;;;8.51;100.00;100599.09;5025160;28;20217;-47
2024/03/20 00:45:00;;;;;;;0.30;0.20;;;;;;;8.38;100.00;100597.53;5031342;28;20463;-47
2024/03/20 00:47:26;;;;;;;0.30;0.20;;;;;;;8.65;100.00;100598.03;5031222;28;20279;-48
2024/03/20 00:49:51;;;;;;;0.30;0.20;;;;;;;8.55;100.00;100595.50;5031336;28;20578;-47
2024/03/20 00:52:17;;;;;;;0.30;0.20;;;;;;;8.51;100.00;100596.47;5031469;28;20221;-47
2024/03/20 00:54:45;;;;;;;1.70;1.60;;;;;;;8.48;100.00;100603.56;5031152;28;20237;-47
2024/03/20 00:57:12;;;;;;;0.30;0.20;;;;;;;8.49;100.00;100584.13;5022658;28;20251;-46
2024/03/20 00:59:38;;;;;;;0.30;0.20;;;;;;;8.49;100.00;100592.06;5031615;28;20460;-46
2024/03/20 01:02:06;;;;;;;0.30;0.20;;;;;;;8.54;100.00;100590.25;5031450;28;20469;-47
2024/03/20 01:04:32;;;;;;;0.30;0.20;;;;;;;8.54;100.00;100599.06;5031090;28;20212;-48
2024/03/20 01:06:58;;;;;;;0.40;0.20;;;;;;;8.63;100.00;100591.84;5031002;28;20495;-46
2024/03/20 01:09:24;;;;;;;0.30;0.20;;;;;;;8.65;100.00;100587.44;5031060;28;20476;-47
2024/03/20 01:11:49;;;;;;;0.30;0.20;;;;;;;8.51;100.00;100585.00;5031211;28;20220;-48
2024/03/20 01:14:15;;;;;;;0.30;0.20;;;;;;;8.44;100.00;100585.97;5031039;28;20217;-47
2024/03/20 01:16:41;;;;;;;0.50;0.30;;;;;;;8.49;100.00;100590.28;5030704;28;20343;-47
2024/03/20 01:19:06;;;;;;;0.30;0.20;;;;;;;8.55;100.00;100584.91;5031007;28;20217;-47
2024/03/20 01:21:32;;;;;;;0.30;0.20;;;;;;;8.52;100.00;100590.25;5031052;28;20263;-47
2024/03/20 01:23:58;;;;;;;0.30;0.20;;;;;;;8.53;100.00;100584.06;5030868;28;20224;-47
2024/03/20 01:26:23;;;;;;;0.30;0.20;;;;;;;8.47;100.00;100586.78;5030898;28;20521;-46
2024/03/20 01:28:49;;;;;;;0.30;0.20;;;;;;;8.42;100.00;100582.47;5030804;28;20248;-47
2024/03/20 01:31:15;;;;;;;0.30;0.20;;;;;;;8.50;100.00;100580.59;5030982;28;20225;-46
2024/03/20 01:33:41;;;;;;;2.63;2.43;;;;;;;8.42;100.00;100578.03;5030469;28;20220;-46
2024/03/20 01:36:06;;;;;;;0.30;0.20;;;;;;;8.32;100.00;100581.69;5030643;28;20328;-47
2024/03/20 01:38:32;;;;;;;0.30;0.20;;;;;;;8.03;100.00;100576.81;5031017;28;20240;-46
2024/03/20 01:40:58;;;;;;;0.30;0.20;;;;;;;8.11;100.00;100579.38;5031247;28;20464;-46
2024/03/20 01:43:23;;;;;;;0.33;0.20;;;;;;;8.22;100.00;100564.19;5030874;28;20571;-47
2024/03/20 01:45:49;;;;;;;0.30;0.20;;;;;;;8.27;100.00;100563.22;5030969;28;20217;-46
2024/03/20 01:48:16;;;;;;;0.30;0.20;;;;;;;8.24;100.00;100571.22;5030505;28;20314;-47
2024/03/20 01:50:43;;;;;;;0.30;0.20;;;;;;;8.18;100.00;100567.78;5030865;28;20464;-46
2024/03/20 01:53:11;;;;;;;0.30;0.20;;;;;;;8.07;100.00;100565.28;5030342;28;20464;-47
2024/03/20 01:55:37;;;;;;;0.30;0.20;;;;;;;8.18;100.00;100562.47;5030467;28;20496;-48
2024/03/20 01:58:03;;;;;;;0.30;0.20;;;;;;;8.20;100.00;100563.31;5031810;28;20544;-46
2024/03/20 02:00:30;;;;;;;0.30;0.20;;;;;;;8.16;100.00;100561.63;5034059;28;20228;-47
2024/03/20 02:03:03;;;;;;;0.30;0.20;;;;;;;8.20;100.00;100556.25;5034187;28;20466;-47
2024/03/20 02:05:29;;;;;;;0.30;0.20;;;;;;;8.20;100.00;100566.84;5034354;28;20448;-47
2024/03/20 02:07:55;;;;;;;0.30;0.20;;;;;;;8.22;100.00;100561.53;5033734;28;20518;-47
2024/03/20 02:10:22;;;;;;;0.30;0.20;;;;;;;8.24;100.00;100562.41;5034366;28;20464;-47
2024/03/20 02:12:59;;;;;;;0.30;0.20;;;;;;;8.09;100.00;100565.28;5034030;28;20471;-46
2024/03/20 02:15:25;;;;;;;0.30;0.20;;;;;;;8.29;100.00;100552.59;5033998;28;20494;-48
2024/03/20 02:17:51;;;;;;;0.30;0.20;;;;;;;8.35;100.00;100557.84;5033815;28;21000;-47
2024/03/20 02:20:17;;;;;;;0.30;0.20;;;;;;;8.40;100.00;100556.00;5033894;28;20213;-46
2024/03/20 02:22:44;;;;;;;0.30;0.20;;;;;;;8.34;100.00;100556.09;5033617;28;20678;-47
2024/03/20 02:25:10;;;;;;;0.30;0.20;;;;;;;8.21;100.00;100557.13;5033953;28;20452;-47
2024/03/20 02:27:36;;;;;;;0.30;0.20;;;;;;;8.36;100.00;100556.06;5033778;28;20488;-47
2024/03/20 02:30:04;;;;;;;0.30;0.20;;;;;;;8.48;100.00;100567.34;5033747;28;20460;-46
2024/03/20 02:32:29;;;;;;;0.30;0.20;;;;;;;8.46;100.00;100555.03;5033433;28;20967;-47
2024/03/20 02:34:55;;;;;;;0.30;0.20;;;;;;;8.47;100.00;100562.06;5033333;28;20487;-48
2024/03/20 02:37:20;;;;;;;0.30;0.20;;;;;;;8.35;100.00;100562.25;5033725;28;20283;-47
2024/03/20 02:39:49;;;;;;;0.30;0.20;;;;;;;8.22;100.00;100559.78;5033600;28;20228;-47
2024/03/20 02:42:15;;;;;;;0.30;0.20;;;;;;;8.33;100.00;100556.94;5031794;28;20614;-48
2024/03/20 02:44:40;;;;;;;0.30;0.20;;;;;;;8.23;100.00;100563.31;5033605;28;20591;-48
2024/03/20 02:47:07;;;;;;;0.30;0.20;;;;;;;8.33;100.00;100556.94;5033432;28;20240;-47
2024/03/20 02:49:32;;;;;;;0.30;0.20;;;;;;;8.20;100.00;100552.72;5033163;28;20213;-50
2024/03/20 02:51:58;;;;;;;0.30;0.20;;;;;;;8.20;100.00;100564.19;5033777;28;20460;-47
2024/03/20 02:54:23;;;;;;;0.30;0.20;;;;;;;8.22;100.00;100562.44;5033549;28;20392;-47
2024/03/20 02:56:49;;;;;;;0.30;0.20;;;;;;;8.20;100.00;100558.03;5032990;28;20731;-48
2024/03/20 02:59:14;;;;;;;0.30;0.20;;;;;;;8.22;100.00;100550.94;5033240;28;20311;-47
2024/03/20 03:01:40;;;;;;;0.30;0.20;;;;;;;8.29;100.00;100555.25;5033271;28;20244;-49
2024/03/20 03:04:06;;;;;;;0.30;0.20;;;;;;;8.26;100.00;100557.97;5016469;28;20209;-47
2024/03/20 03:06:31;;;;;;;0.33;0.20;;;;;;;8.30;100.00;100557.88;5033208;28;20256;-47
2024/03/20 03:08:57;;;;;;;0.30;0.20;;;;;;;8.23;100.00;100556.25;5031918;28;20875;-47
2024/03/20 03:11:23;;;;;;;0.30;0.20;;;;;;;8.09;100.00;100552.03;5032647;28;20701;-46
2024/03/20 03:13:48;;;;;;;0.30;0.20;;;;;;;8.20;100.00;100552.72;5033029;28;20464;-47
2024/03/20 03:16:14;;;;;;;0.30;0.20;;;;;;;8.20;100.00;100553.59;5032857;28;20694;-47
2024/03/20 03:18:39;;;;;;;0.30;0.20;;;;;;;8.16;100.00;100558.97;5030296;28;20276;-47
2024/03/20 03:21:11;;;;;;;0.30;0.20;;;;;;;8.07;100.00;100552.03;5032971;28;20558;-48
2024/03/20 03:23:37;;;;;;;0.30;0.20;;;;;;;8.03;100.00;100548.56;5032707;28;20728;-46
2024/03/20 03:26:05;;;;;;;0.30;0.20;;;;;;;8.03;100.00;100556.50;5033078;28;20456;-46
2024/03/20 03:28:31;;;;;;;0.30;0.20;;;;;;;8.15;100.00;100560.75;5016133;28;20241;-47
2024/03/20 03:31:00;;;;;;;0.30;0.20;;;;;;;8.27;100.00;100560.59;5032829;28;20506;-47
2024/03/20 03:33:26;;;;;;;0.30;0.20;;;;;;;8.30;100.00;100557.00;5032713;28;20650;-46
2024/03/20 03:35:52;;;;;;;0.63;0.63;;;;;;;8.38;100.00;100559.59;5032319;28;20545;-49
2024/03/20 03:38:18;;;;;;;0.30;0.20;;;;;;;8.43;100.00;100560.38;5032421;28;20526;-47
2024/03/20 03:40:43;;;;;;;0.30;0.20;;;;;;;8.46;100.00;100568.28;5032439;28;20455;-47
2024/03/20 03:43:09;;;;;;;0.30;0.20;;;;;;;8.42;100.00;100567.44;5013795;28;20282;-47
2024/03/20 03:45:35;;;;;;;0.30;0.20;;;;;;;8.55;100.00;100565.50;5032399;28;20267;-47
2024/03/20 03:48:02;;;;;;;0.30;0.20;;;;;;;8.59;100.00;100567.19;5032165;28;20233;-47
2024/03/20 03:50:28;;;;;;;0.30;0.20;;;;;;;8.64;100.00;100559.19;5048823;28;20225;-47
2024/03/20 03:52:53;;;;;;;0.30;0.20;;;;;;;8.54;100.00;100567.25;5032143;28;20481;-47
2024/03/20 03:55:18;;;;;;;0.30;0.20;;;;;;;8.64;100.00;100559.19;5032069;28;20324;-47
2024/03/20 03:57:44;;;;;;;0.30;0.20;;;;;;;8.54;100.00;100566.38;5031995;28;20245;-48
2024/03/20 04:00:11;;;;;;;0.30;0.20;;;;;;;8.39;100.00;100561.34;5031882;28;20626;-47
2024/03/20 04:02:37;;;;;;;0.30;0.20;;;;;;;8.63;100.00;100560.06;5031975;28;20220;-47
2024/03/20 04:05:04;;;;;;;0.30;0.20;;;;;;;8.50;100.00;100562.94;5032072;28;20455;-46
2024/03/20 04:07:30;;;;;;;0.30;0.20;;;;;;;8.48;100.00;100561.16;5031241;28;20233;-48
2024/03/20 04:09:56;;;;;;;0.30;0.20;;;;;;;8.87;100.00;100551.69;5031737;28;20834;-47
2024/03/20 04:12:21;;;;;;;0.30;0.20;;;;;;;8.99;100.00;100559.44;5031847;28;20555;-48
2024/03/20 04:14:47;;;;;;;0.30;0.20;;;;;;;8.69;100.00;100570.56;5031908;28;20270;-47
2024/03/20 04:17:12;;;;;;;0.30;0.20;;;;;;;8.72;100.00;100570.50;5031795;28;20298;-47
2024/03/20 04:19:38;;;;;;;0.30;0.20;;;;;;;8.65;100.00;100568.88;5031829;28;20224;-47
2024/03/20 04:22:03;;;;;;;0.30;0.20;;;;;;;8.60;100.00;100575.09;5031318;28;20635;-47
2024/03/20 04:24:29;;;;;;;0.30;0.20;;;;;;;8.40;100.00;100576.31;5031689;28;20291;-48
2024/03/20 04:26:55;;;;;;;0.30;0.20;;;;;;;8.49;100.00;100589.41;5031538;28;20248;-47
2024/03/20 04:29:20;;;;;;;0.30;0.20;;;;;;;8.54;100.00;100585.81;5031833;28;20224;-48
2024/03/20 04:31:46;;;;;;;0.30;0.20;;;;;;;8.69;100.00;100587.34;5031479;28;20295;-47
2024/03/20 04:34:12;;;;;;;0.30;0.20;;;;;;;8.64;100.00;100588.31;5031401;28;20217;-48
2024/03/20 04:36:37;;;;;;;0.30;0.20;;;;;;;8.52;100.00;100584.97;5031080;28;20324;-48
2024/03/20 04:39:06;;;;;;;0.30;0.20;;;;;;;8.46;100.00;100584.16;5031112;28;20591;-47
2024/03/20 04:41:33;;;;;;;0.30;0.20;;;;;;;8.41;100.00;100583.38;5029299;28;20666;-48
2024/03/20 04:43:58;;;;;;;0.30;0.20;;;;;;;8.41;100.00;100596.63;5031436;28;20456;-47
2024/03/20 04:46:24;;;;;;;0.30;0.20;;;;;;;8.71;100.00;100592.63;5031184;28;20486;-47
2024/03/20 04:48:49;;;;;;;0.30;0.20;;;;;;;8.73;100.00;100589.03;5031440;28;20240;-47
2024/03/20 04:51:15;;;;;;;0.30;0.20;;;;;;;8.58;100.00;100590.16;5031403;28;20705;-47
2024/03/20 04:53:41;;;;;;;0.30;0.20;;;;;;;8.70;100.00;100596.16;5031022;28;20303;-49
2024/03/20 04:56:06;;;;;;;0.30;0.20;;;;;;;8.43;100.00;100606.28;5031369;28;20247;-48
2024/03/20 04:58:32;;;;;;;0.30;0.20;;;;;;;8.36;100.00;100602.00;5031357;28;20233;-48
2024/03/20 05:00:57;;;;;;;0.30;0.20;;;;;;;8.28;100.00;100601.19;5030947;28;20221;-47
2024/03/20 05:03:23;;;;;;;0.30;0.20;;;;;;;8.31;100.00;100602.00;5031446;28;20208;-48
2024/03/20 05:05:49;;;;;;;0.30;0.20;;;;;;;8.27;100.00;100596.78;5031049;28;20224;-48
2024/03/20 05:08:14;;;;;;;0.30;0.20;;;;;;;8.33;100.00;100594.91;5039008;23;20235;-48
2024/03/20 05:10:41;;;;;;;0.30;0.20;;;;;;;8.13;100.00;100606.69;5050954;28;20212;-48
2024/03/20 05:13:07;;;;;;;0.30;0.30;;;;;;;8.12;100.00;100612.88;5051006;28;20220;-47
2024/03/20 05:15:39;;;;;;;0.30;0.20;;;;;;;8.10;100.00;100612.03;5051433;28;20482;-48
2024/03/20 05:18:04;;;;;;;0.30;0.20;;;;;;;8.12;100.00;100612.88;5050668;28;20475;-48
2024/03/20 05:20:30;;;;;;;0.30;0.20;;;;;;;8.14;100.00;100608.44;5051216;28;20455;-48
2024/03/20 05:22:55;;;;;;;0.30;0.20;;;;;;;8.08;100.00;100605.84;5050875;28;20665;-47
2024/03/20 05:25:21;;;;;;;0.30;0.20;;;;;;;8.42;100.00;100620.44;5051052;28;20299;-48
2024/03/20 05:27:47;;;;;;;0.30;0.20;;;;;;;8.57;100.00;100622.84;5050848;28;20228;-48
2024/03/20 05:30:12;;;;;;;0.30;0.20;;;;;;;8.47;100.00;100629.19;5034527;28;20623;-49
2024/03/20 05:32:38;;;;;;;0.30;0.20;;;;;;;8.36;100.00;100623.19;5042287;28;20226;-48
2024/03/20 05:35:04;;;;;;;0.30;0.20;;;;;;;8.28;100.00;100627.66;5035243;28;20245;-48
2024/03/20 05:37:29;;;;;;;0.30;0.20;;;;;;;8.15;100.00;100626.06;5034974;28;20232;-48
2024/03/20 05:39:55;;;;;;;0.30;0.20;;;;;;;8.30;100.00;100629.38;5034525;28;20459;-48
2024/03/20 05:42:21;;;;;;;0.30;0.20;;;;;;;8.02;100.00;100626.22;5018361;28;20216;-48
2024/03/20 05:44:47;;;;;;;0.30;0.20;;;;;;;8.48;100.00;100627.41;5035159;28;20242;-48
2024/03/20 05:47:12;;;;;;;0.30;0.20;;;;;;;8.25;100.00;100622.41;5034869;28;20483;-48
2024/03/20 05:49:38;;;;;;;0.30;0.20;;;;;;;8.28;100.00;100632.97;5051364;28;20564;-49
2024/03/20 05:52:04;;;;;;;0.30;0.20;;;;;;;8.07;100.00;100628.81;5054634;28;20216;-48
2024/03/20 05:54:29;;;;;;;0.30;0.20;;;;;;;8.17;100.00;100629.56;5054516;28;20539;-49
2024/03/20 05:56:55;;;;;;;0.30;0.20;;;;;;;8.22;100.00;100627.72;5054095;28;20705;-48
2024/03/20 05:59:21;;;;;;;0.30;0.20;;;;;;;7.98;100.00;100626.31;5054498;28;20204;-48
2024/03/20 06:01:47;;;;;;;0.30;0.20;;;;;;;8.16;100.00;100623.41;5054489;28;20208;-48
2024/03/20 06:04:13;;;;;;;0.30;0.20;;;;;;;8.13;100.00;100633.16;5051620;28;20881;-48
2024/03/20 06:06:40;;;;;;;0.30;0.20;;;;;;;8.21;100.00;100633.91;5034282;28;20658;-48
2024/03/20 06:09:10;;;;;;;0.30;0.20;;;;;;;8.31;100.00;100635.56;5034205;28;20705;-48
2024/03/20 06:11:42;;;;;;;0.30;0.20;;;;;;;8.22;100.00;100622.44;5034330;28;20425;-49
2024/03/20 06:14:07;;;;;;;0.30;0.20;;;;;;;8.19;100.00;100635.72;5034362;28;20431;-49
2024/03/20 06:16:33;;;;;;;0.30;0.20;;;;;;;8.21;100.00;100626.84;5034084;28;20264;-48
2024/03/20 06:18:58;;;;;;;0.30;0.20;;;;;;;8.28;100.00;100632.97;5034116;28;20578;-49
2024/03/20 06:21:24;;;;;;;0.30;0.20;;;;;;;8.25;100.00;100633.00;5033942;28;20269;-48
2024/03/20 06:23:50;;;;;;;0.30;0.20;;;;;;;8.16;100.00;100626.06;5034118;28;20224;-48
2024/03/20 06:26:15;;;;;;;0.30;0.20;;;;;;;8.34;100.00;100632.88;5034308;28;20664;-49
2024/03/20 06:28:41;;;;;;;0.30;0.20;;;;;;;8.40;100.00;100640.78;5021076;28;20301;-48
2024/03/20 06:31:06;;;;;;;0.30;0.20;;;;;;;8.38;100.00;100641.69;5053860;28;20299;-49
2024/03/20 06:33:33;;;;;;;0.30;0.20;;;;;;;8.41;100.00;100645.16;5053875;28;20216;-49
2024/03/20 06:35:59;;;;;;;0.30;0.20;;;;;;;8.50;100.00;100647.69;5053654;28;20236;-50
2024/03/20 06:38:25;;;;;;;0.30;0.20;;;;;;;8.51;100.00;100651.22;5053354;28;20841;-46
2024/03/20 06:40:50;;;;;;;0.30;0.20;;;;;;;8.56;100.00;100641.41;5053719;28;20524;-47
2024/03/20 06:43:16;;;;;;;0.30;0.20;;;;;;;8.41;100.00;100639.00;5053692;28;20212;-47
2024/03/20 06:45:47;;;;;;;0.30;0.20;;;;;;;8.61;100.00;100648.38;5043010;28;20291;-48
2024/03/20 06:48:17;;;;;;;0.30;0.20;;;;;;;8.48;100.00;100635.34;5033643;28;20228;-47
2024/03/20 06:50:48;;;;;;;0.30;0.20;;;;;;;8.56;100.00;100641.41;5033505;28;20423;-47
2024/03/20 06:53:14;;;;;;;0.30;0.20;;;;;;;9.19;100.00;100646.59;5033471;28;20427;-48
2024/03/20 06:55:43;;;;;;;0.30;0.20;;;;;;;9.22;100.00;100650.97;5033447;28;20537;-47
2024/03/20 06:58:12;;;;;;;0.30;0.20;;;;;;;8.98;100.00;100641.66;5033169;28;20486;-47
2024/03/20 07:00:38;;;;;;;0.30;0.20;;;;;;;8.97;100.00;100651.38;5033647;28;20475;-47
2024/03/20 07:03:04;;;;;;;0.30;0.20;;;;;;;8.68;100.00;100653.63;5033265;28;20518;-49
2024/03/20 07:05:30;;;;;;;0.30;0.20;;;;;;;8.87;100.00;100653.28;5045699;28;20463;-48
2024/03/20 07:07:55;;;;;;;0.30;0.20;;;;;;;9.29;100.00;100650.84;5053004;28;20475;-50
2024/03/20 07:10:21;;;;;;;0.30;0.20;;;;;;;8.82;100.00;100644.56;5053259;28;20443;-47
2024/03/20 07:12:47;;;;;;;0.30;0.20;;;;;;;8.79;100.00;100647.25;5053240;28;20830;-47
2024/03/20 07:15:12;;;;;;;0.30;0.20;;;;;;;9.06;100.00;100647.72;5052999;28;20493;-47
2024/03/20 07:17:39;;;;;;;0.30;0.30;;;;;;;9.05;100.00;100652.16;5053174;28;20224;-47
2024/03/20 07:20:07;;;;;;;1.77;1.67;;;;;;;9.10;100.00;100646.75;5053331;28;20212;-48
2024/03/20 07:22:32;;;;;;;0.70;0.70;;;;;;;9.02;100.00;100646.88;5052810;28;20842;-49
2024/03/20 07:24:58;;;;;;;0.30;0.20;;;;;;;8.99;100.00;100660.19;5052890;28;20451;-47
2024/03/20 07:27:24;;;;;;;0.30;0.20;;;;;;;9.37;100.00;100656.88;5052791;28;21066;-49
2024/03/20 07:29:49;;;;;;;0.30;0.20;;;;;;;9.45;100.00;100648.78;5052883;28;20208;-48
2024/03/20 07:32:15;;;;;;;0.30;0.20;;;;;;;9.39;100.00;100651.56;5053035;28;20261;-48
2024/03/20 07:34:40;;;;;;;0.30;0.20;;;;;;;9.21;100.00;100658.06;5052564;28;20700;-47
2024/03/20 07:37:06;;;;;;;0.30;0.20;;;;;;;9.37;100.00;100650.72;5052284;28;20311;-47
2024/03/20 07:39:33;;;;;;;0.30;0.20;;;;;;;9.12;100.00;100656.44;5052245;28;20208;-47
2024/03/20 07:42:03;;;;;;;0.30;0.20;;;;;;;9.31;100.00;100664.94;5052549;28;20459;-47
2024/03/20 07:44:32;;;;;;;0.30;0.20;;;;;;;9.36;100.00;100665.75;5051728;28;20479;-48
2024/03/20 07:46:59;;;;;;;0.30;0.20;;;;;;;9.43;100.00;100671.81;5032490;28;20498;-47
2024/03/20 07:49:25;;;;;;;0.30;0.20;;;;;;;9.25;100.00;100677.44;5032378;28;20447;-48
2024/03/20 07:51:51;;;;;;;0.30;0.20;;;;;;;9.23;100.00;100671.28;5032316;28;20427;-47
2024/03/20 07:54:23;;;;;;;0.30;0.20;;;;;;;9.57;100.00;100667.13;5032308;28;20456;-47
2024/03/20 07:56:58;;;;;;;0.30;0.20;;;;;;;9.82;100.00;100674.63;5048609;28;20499;-48
2024/03/20 07:59:25;;;;;;;0.30;0.20;;;;;;;9.67;100.00;100670.50;5052198;28;20978;-48
2024/03/20 08:01:51;;;;;;;0.30;0.20;;;;;;;9.67;100.00;100673.16;5052221;28;20517;-47
2024/03/20 08:04:17;;;;;;;0.30;0.27;;;;;;;9.55;100.00;100670.72;5048564;28;20426;-47
2024/03/20 08:06:43;;;;;;;0.30;0.20;;;;;;;9.65;100.00;100667.00;5032228;28;20452;-47
2024/03/20 08:09:09;;;;;;;0.30;0.20;;;;;;;9.68;100.00;100674.91;5032170;28;20490;-47
2024/03/20 08:11:35;;;;;;;0.30;0.20;;;;;;;9.59;100.00;100677.72;5032125;28;20208;-47
2024/03/20 08:14:13;;;;;;;0.30;0.20;;;;;;;9.56;100.00;100675.13;5035615;28;20215;-47
2024/03/20 08:16:39;;;;;;;0.30;0.20;;;;;;;9.53;100.00;100673.41;5051995;28;20489;-47
2024/03/20 08:19:06;;;;;;;0.30;0.20;;;;;;;9.67;100.00;100676.69;5032904;28;21083;-47
2024/03/20 08:21:35;;;;;;;0.30;0.20;;;;;;;9.82;100.00;100669.31;5031937;28;20426;-47
2024/03/20 08:24:04;;;;;;;0.30;0.20;;;;;;;9.82;100.00;100675.50;5050664;28;20860;-48
2024/03/20 08:26:30;;;;;;;0.30;0.20;;;;;;;9.75;100.00;100677.41;5038677;28;20953;-48
2024/03/20 08:28:55;;;;;;;0.30;0.20;;;;;;;9.83;100.00;100676.38;5032096;28;20501;-47
2024/03/20 08:31:21;;;;;;;0.30;0.20;;;;;;;10.01;100.00;100676.03;5031759;28;20476;-48
2024/03/20 08:33:47;;;;;;;0.30;0.20;;;;;;;9.87;100.00;100675.41;5031832;28;20956;-47
2024/03/20 08:36:12;;;;;;;0.30;0.20;;;;;;;9.76;100.00;100667.69;5031415;28;20236;-47
2024/03/20 08:38:38;;;;;;;0.30;0.20;;;;;;;9.86;100.00;100669.22;5031374;28;20236;-47
2024/03/20 08:41:05;;;;;;;0.30;0.20;;;;;;;10.22;100.00;100661.47;5031577;28;20231;-48
2024/03/20 08:43:32;;;;;;;0.87;0.87;;;;;;;10.19;100.00;100664.16;5031541;28;20213;-47
2024/03/20 08:45:58;;;;;;;0.30;0.20;;;;;;;10.12;100.00;100668.72;5031645;28;20437;-47
2024/03/20 08:48:24;;;;;;;1.90;1.80;;;;;;;10.29;100.00;100666.63;5031522;28;20510;-47
2024/03/20 08:50:50;;;;;;;0.30;0.20;;;;;;;10.84;100.00;100670.72;5031460;28;20452;-47
2024/03/20 08:53:18;;;;;;;0.30;0.20;;;;;;;10.19;100.00;100665.03;5031524;28;20515;-48
2024/03/20 08:55:43;;;;;;;0.30;0.20;;;;;;;10.61;100.00;100663.25;5031391;28;20236;-48
2024/03/20 08:58:09;;;;;;;0.30;0.20;;;;;;;10.68;100.00;100662.19;5050959;28;20479;-47
2024/03/20 09:00:35;;;;;;;0.30;0.20;;;;;;;10.63;100.00;100665.88;5038713;28;20221;-48
2024/03/20 09:03:02;;;;;;;0.30;0.20;;;;;;;10.70;100.00;100661.31;5031438;28;20213;-47
2024/03/20 09:05:28;;;;;;;0.30;0.20;;;;;;;10.47;100.00;100659.16;5031423;28;20448;-47
2024/03/20 09:07:54;;;;;;;0.30;0.20;;;;;;;10.58;100.00;100654.47;5034106;28;20542;-47
2024/03/20 09:10:20;;;;;;;0.30;0.20;;;;;;;10.88;100.00;100660.88;5035273;28;20928;-47
2024/03/20 09:12:46;;;;;;;0.30;0.20;;;;;;;10.81;100.00;100654.78;5035339;28;20463;-47
2024/03/20 09:15:12;;;;;;;0.30;0.20;;;;;;;10.93;100.00;100664.28;5022602;28;20520;-48
2024/03/20 09:17:37;;;;;;;0.30;0.20;;;;;;;11.21;100.00;100659.16;5015487;28;20899;-48
2024/03/20 09:20:06;;;;;;;0.30;0.20;;;;;;;11.40;100.00;100664.91;5015824;28;20572;-48
2024/03/20 09:22:31;;;;;;;2.37;2.27;;;;;;;11.11;100.00;100655.00;5015500;28;20229;-48
2024/03/20 09:24:57;;;;;;;0.30;0.20;;;;;;;11.04;100.00;100658.69;5015367;28;20946;-47
2024/03/20 09:27:23;;;;;;;13.47;10.97;;;;;;;11.41;100.00;100661.31;5015337;28;20229;-47
2024/03/20 09:29:49;;;;;;;0.30;0.20;;;;;;;11.85;100.00;100660.16;5015406;28;20264;-48
2024/03/20 09:32:14;;;;;;;0.30;0.20;;;;;;;11.93;100.00;100654.63;5028510;28;20490;-47
2024/03/20 09:34:39;;;;;;;0.30;0.20;;;;;;;11.62;100.00;100652.75;5055268;28;20215;-48
2024/03/20 09:37:06;;;;;;;0.30;0.20;;;;;;;11.81;100.00;100650.50;5034644;28;20236;-47
2024/03/20 09:39:32;;;;;;;0.30;0.20;;;;;;;11.93;100.00;100644.84;5034699;28;20666;-47
2024/03/20 09:41:57;;;;;;;0.30;0.20;;;;;;;12.29;100.00;100650.88;5034696;28;20466;-48
2024/03/20 09:44:23;;;;;;;0.30;0.20;;;;;;;12.72;100.00;100644.22;5034595;28;20448;-48
2024/03/20 09:46:53;;;;;;;0.30;0.20;;;;;;;13.15;100.00;100646.34;5047897;28;20272;-48
2024/03/20 09:49:21;;;;;;;0.30;0.20;;;;;;;13.09;100.00;100645.69;5034790;28;20217;-47
2024/03/20 09:51:48;;;;;;;0.30;0.20;;;;;;;12.59;100.00;100649.06;5041799;28;20944;-47
2024/03/20 09:54:14;;;;;;;0.40;0.20;;;;;;;12.52;100.00;100639.50;5040302;28;20456;-47
2024/03/20 09:56:43;;;;;;;0.30;0.20;;;;;;;12.64;100.00;100628.47;5034361;28;20458;-48
2024/03/20 09:59:08;;;;;;;0.30;0.20;;;;;;;12.81;100.00;100625.25;5034407;28;20237;-48
2024/03/20 10:01:34;;;;;;;3.33;3.13;;;;;;;13.45;100.00;100622.25;5034730;28;20438;-48
2024/03/20 10:04:06;;;;;;;0.30;0.20;;;;;;;13.31;100.00;100623.59;5034528;28;20220;-48
2024/03/20 10:06:37;;;;;;;0.40;0.20;;;;;;;13.15;100.00;100617.00;5034519;28;20535;-48
2024/03/20 10:09:03;;;;;;;0.30;0.20;;;;;;;13.25;100.00;100615.78;5034285;28;20483;-48
2024/03/20 10:11:32;;;;;;;0.30;0.20;;;;;;;13.32;100.00;100622.69;5034351;28;20459;-48
2024/03/20 10:13:57;;;;;;;0.30;0.20;;;;;;;13.42;100.00;100623.22;5049696;28;20459;-47
2024/03/20 10:16:23;;;;;;;0.30;0.20;;;;;;;13.59;100.00;100620.84;5054083;28;20867;-48
2024/03/20 10:18:49;;;;;;;0.30;0.30;;;;;;;13.57;100.00;100617.38;5037913;28;20237;-48
2024/03/20 10:21:14;;;;;;;0.73;0.73;;;;;;;13.66;100.00;100616.13;5034126;28;20217;-47
2024/03/20 10:23:47;;;;;;;0.30;0.20;;;;;;;13.73;100.00;100617.69;5034102;28;20498;-47
2024/03/20 10:26:14;;;;;;;0.30;0.20;;;;;;;14.11;100.00;100616.22;5033783;28;20587;-47
2024/03/20 10:28:41;;;;;;;0.70;0.70;;;;;;;14.01;99.68;100614.00;5033889;28;20464;-48
2024/03/20 10:31:10;;;;;;;0.30;0.20;;;;;;;13.97;99.88;100620.34;5033626;28;20966;-48
2024/03/20 10:33:42;;;;;;;0.30;0.20;;;;;;;14.25;98.85;100621.06;5033605;28;20430;-48
2024/03/20 10:36:09;;;;;;;0.30;0.20;;;;;;;14.07;98.69;100613.75;5033727;28;20492;-47
2024/03/20 10:38:35;;;;;;;0.30;0.20;;;;;;;13.95;99.59;100609.72;5033645;28;20494;-49
2024/03/20 10:41:03;;;;;;;0.30;0.20;;;;;;;13.97;99.50;100607.00;5034043;28;20422;-49
2024/03/20 10:43:29;;;;;;;0.30;0.20;;;;;;;14.12;98.77;100609.13;5033489;28;20931;-49
2024/03/20 10:45:59;;;;;;;0.30;0.20;;;;;;;14.10;99.31;100605.59;5033685;28;20427;-47
2024/03/20 10:48:25;;;;;;;0.30;0.20;;;;;;;14.48;98.43;100607.69;5033627;28;20467;-47
2024/03/20 10:50:53;;;;;;;0.30;0.20;;;;;;;14.48;97.92;100598.81;5033278;28;20459;-48
2024/03/20 10:53:21;;;;;;;0.30;0.20;;;;;;;14.56;97.74;100598.50;5033537;28;20452;-48
2024/03/20 10:55:50;;;;;;;0.30;0.20;;;;;;;15.09;96.83;100589.16;5033432;28;20457;-48
2024/03/20 10:58:17;;;;;;;0.30;0.20;;;;;;;15.13;96.40;100589.88;5033122;28;20454;-48
2024/03/20 11:00:54;;;;;;;0.30;0.20;;;;;;;15.30;95.88;100591.84;5034308;28;20941;-48
2024/03/20 11:03:41;;;;;;;0.30;0.20;;;;;;;15.65;95.20;100590.34;5053351;28;20787;-48
2024/03/20 11:06:25;;;;;;;0.30;0.20;;;;;;;15.95;94.61;100596.13;5053305;28;20421;-48
2024/03/20 11:08:53;;;;;;;0.30;0.30;;;;;;;16.11;93.48;100593.59;5053364;28;20486;-50
2024/03/20 11:11:19;;;;;;;0.37;0.20;;;;;;;15.80;93.22;100584.28;5053010;28;20429;-50
2024/03/20 11:13:47;;;;;;;0.30;0.20;;;;;;;16.19;92.16;100586.94;5023008;28;21063;-50
2024/03/20 11:16:23;;;;;;;0.30;0.20;;;;;;;16.32;91.73;100583.69;5052873;28;20282;-50
2024/03/20 11:18:56;;;;;;;0.30;0.20;;;;;;;16.34;90.90;100581.78;5052676;28;20540;-50
2024/03/20 11:21:24;;;;;;;0.30;0.20;;;;;;;16.44;90.90;100580.38;5052663;28;21004;-50